sensor_id;sensor_type;location;lat;lon;timestamp;pressure;altitude;pressure_sealevel;temperature;humidity
75006;BME280;63553;51.814;4.600;2023-04-15T00:01:54;100921.47;;;14.82;56.30
75006;BME280;63553;51.814;4.600;2023-04-15T00:04:19;100924.28;;;14.82;56.58
75006;BME280;63553;51.814;4.600;2023-04-15T00:06:51;100927.06;;;14.82;56.05
75006;BME280;63553;51.814;4.600;2023-04-15T00:09:18;100928.72;;;14.83;56.63
75006;BME280;63553;51.814;4.600;2023-04-15T00:11:44;100925.09;;;14.83;56.51
75006;BME280;63553;51.814;4.600;2023-04-15T00:14:09;100929.88;;;14.82;56.47
75006;BME280;63553;51.814;4.600;2023-04-15T00:16:35;100931.84;;;14.82;56.59
75006;BME280;63553;51.814;4.600;2023-04-15T00:19:01;100933.84;;;14.81;56.90
75006;BME280;63553;51.814;4.600;2023-04-15T00:21:26;100928.59;;;14.80;56.60
75006;BME280;63553;51.814;4.600;2023-04-15T00:23:53;100932.22;;;14.80;56.71
75006;BME280;63553;51.814;4.600;2023-04-15T00:26:18;100936.66;;;14.81;57.00
75006;BME280;63553;51.814;4.600;2023-04-15T00:28:45;100932.22;;;14.80;56.40
75006;BME280;63553;51.814;4.600;2023-04-15T00:31:10;100949.34;;;14.79;56.47
75006;BME280;63553;51.814;4.600;2023-04-15T00:33:36;100940.16;;;14.78;57.04
75006;BME280;63553;51.814;4.600;2023-04-15T00:36:01;100942.94;;;14.78;56.71
75006;BME280;63553;51.814;4.600;2023-04-15T00:38:27;100937.34;;;14.78;55.90
75006;BME280;63553;51.814;4.600;2023-04-15T00:40:53;100938.03;;;14.75;55.76
75006;BME280;63553;51.814;4.600;2023-04-15T00:43:19;100938.25;;;14.70;55.80
75006;BME280;63553;51.814;4.600;2023-04-15T00:45:44;100935.00;;;14.68;56.26
75006;BME280;63553;51.814;4.600;2023-04-15T00:48:11;100927.75;;;14.67;56.14
75006;BME280;63553;51.814;4.600;2023-04-15T00:50:36;100934.53;;;14.66;55.62
75006;BME280;63553;51.814;4.600;2023-04-15T00:53:02;100931.25;;;14.64;55.06
75006;BME280;63553;51.814;4.600;2023-04-15T00:55:27;100929.13;;;14.61;55.22
75006;BME280;63553;51.814;4.600;2023-04-15T00:57:53;100931.16;;;14.61;55.09
75006;BME280;63553;51.814;4.600;2023-04-15T01:00:19;100929.50;;;14.60;55.41
75006;BME280;63553;51.814;4.600;2023-04-15T01:02:44;100925.75;;;14.56;55.92
75006;BME280;63553;51.814;4.600;2023-04-15T01:05:10;100926.25;;;14.58;55.72
75006;BME280;63553;51.814;4.600;2023-04-15T01:07:35;100928.22;;;14.57;55.91
75006;BME280;63553;51.814;4.600;2023-04-15T01:10:02;100927.41;;;14.57;56.12
75006;BME280;63553;51.814;4.600;2023-04-15T01:12:28;100920.66;;;14.58;56.36
75006;BME280;63553;51.814;4.600;2023-04-15T01:14:54;100924.59;;;14.57;56.40
75006;BME280;63553;51.814;4.600;2023-04-15T01:17:20;100927.84;;;14.59;56.55
75006;BME280;63553;51.814;4.600;2023-04-15T01:19:46;100937.06;;;14.59;56.29
75006;BME280;63553;51.814;4.600;2023-04-15T01:22:11;100929.03;;;14.58;56.41
75006;BME280;63553;51.814;4.600;2023-04-15T01:24:37;100931.34;;;14.56;56.80
75006;BME280;63553;51.814;4.600;2023-04-15T01:27:03;100932.16;;;14.56;56.58
75006;BME280;63553;51.814;4.600;2023-04-15T01:29:30;100929.81;;;14.58;56.71
75006;BME280;63553;51.814;4.600;2023-04-15T01:31:56;100928.53;;;14.56;56.26
75006;BME280;63553;51.814;4.600;2023-04-15T01:34:22;100930.19;;;14.57;56.33
75006;BME280;63553;51.814;4.600;2023-04-15T01:36:47;100925.28;;;14.54;56.56
75006;BME280;63553;51.814;4.600;2023-04-15T01:39:13;100924.47;;;14.53;56.89
75006;BME280;63553;51.814;4.600;2023-04-15T01:41:38;100924.47;;;14.53;56.67
75006;BME280;63553;51.814;4.600;2023-04-15T01:44:04;100926.81;;;14.51;56.64
75006;BME280;63553;51.814;4.600;2023-04-15T01:46:31;100924.00;;;14.51;56.64
75006;BME280;63553;51.814;4.600;2023-04-15T01:48:56;100925.16;;;14.50;56.74
75006;BME280;63553;51.814;4.600;2023-04-15T01:51:21;100923.88;;;14.48;56.64
75006;BME280;63553;51.814;4.600;2023-04-15T01:53:47;100926.66;;;14.48;56.64
75006;BME280;63553;51.814;4.600;2023-04-15T01:56:12;100938.22;;;14.46;56.63
75006;BME280;63553;51.814;4.600;2023-04-15T01:58:38;100931.81;;;14.45;56.61
75006;BME280;63553;51.814;4.600;2023-04-15T02:01:04;100930.53;;;14.43;56.81
75006;BME280;63553;51.814;4.600;2023-04-15T02:03:30;100933.78;;;14.45;56.87
75006;BME280;63553;51.814;4.600;2023-04-15T02:05:55;100925.38;;;14.45;56.96
75006;BME280;63553;51.814;4.600;2023-04-15T02:08:21;100942.19;;;14.45;56.94
75006;BME280;63553;51.814;4.600;2023-04-15T02:10:46;100933.31;;;14.43;56.92
75006;BME280;63553;51.814;4.600;2023-04-15T02:13:12;100933.66;;;14.41;57.39
75006;BME280;63553;51.814;4.600;2023-04-15T02:15:38;100945.31;;;14.43;57.18
75006;BME280;63553;51.814;4.600;2023-04-15T02:18:03;100946.00;;;14.40;56.78
75006;BME280;63553;51.814;4.600;2023-04-15T02:20:28;100952.78;;;14.39;57.03
75006;BME280;63553;51.814;4.600;2023-04-15T02:22:57;100949.97;;;14.39;56.93
75006;BME280;63553;51.814;4.600;2023-04-15T02:25:22;100957.53;;;14.39;57.17
75006;BME280;63553;51.814;4.600;2023-04-15T02:27:47;100952.28;;;14.37;57.11
75006;BME280;63553;51.814;4.600;2023-04-15T02:30:13;100954.59;;;14.35;57.26
75006;BME280;63553;51.814;4.600;2023-04-15T02:32:39;100955.91;;;14.38;57.00
75006;BME280;63553;51.814;4.600;2023-04-15T02:35:06;100960.34;;;14.39;56.94
75006;BME280;63553;51.814;4.600;2023-04-15T02:37:32;100959.88;;;14.37;57.17
75006;BME280;63553;51.814;4.600;2023-04-15T02:40:01;100964.66;;;14.36;56.97
75006;BME280;63553;51.814;4.600;2023-04-15T02:42:26;100969.41;;;14.36;56.77
75006;BME280;63553;51.814;4.600;2023-04-15T02:44:54;100974.56;;;14.34;57.14
75006;BME280;63553;51.814;4.600;2023-04-15T02:47:20;100967.59;;;14.31;57.04
75006;BME280;63553;51.814;4.600;2023-04-15T02:49:45;100970.75;;;14.30;56.75
75006;BME280;63553;51.814;4.600;2023-04-15T02:52:10;100969.13;;;14.29;57.13
75006;BME280;63553;51.814;4.600;2023-04-15T02:54:36;100981.94;;;14.30;56.74
75006;BME280;63553;51.814;4.600;2023-04-15T02:57:01;100978.69;;;14.28;56.77
75006;BME280;63553;51.814;4.600;2023-04-15T02:59:26;100983.47;;;14.27;57.11
75006;BME280;63553;51.814;4.600;2023-04-15T03:01:52;100988.22;;;14.27;56.66
75006;BME280;63553;51.814;4.600;2023-04-15T03:04:17;100993.81;;;14.27;56.95
75006;BME280;63553;51.814;4.600;2023-04-15T03:06:42;100994.66;;;14.27;56.75
75006;BME280;63553;51.814;4.600;2023-04-15T03:09:08;100991.03;;;14.27;56.40
75006;BME280;63553;51.814;4.600;2023-04-15T03:11:34;100996.94;;;14.25;56.75
75006;BME280;63553;51.814;4.600;2023-04-15T03:14:04;100998.13;;;14.24;56.72
75006;BME280;63553;51.814;4.600;2023-04-15T03:16:29;101004.56;;;14.25;56.79
75006;BME280;63553;51.814;4.600;2023-04-15T03:18:55;101000.94;;;14.24;56.43
75006;BME280;63553;51.814;4.600;2023-04-15T03:21:20;101004.56;;;14.25;57.00
75006;BME280;63553;51.814;4.600;2023-04-15T03:23:47;101008.13;;;14.25;56.96
75006;BME280;63553;51.814;4.600;2023-04-15T03:26:26;101011.44;;;14.27;57.12
75006;BME280;63553;51.814;4.600;2023-04-15T03:28:52;101011.44;;;14.27;56.72
75006;BME280;63553;51.814;4.600;2023-04-15T03:31:17;101017.03;;;14.27;56.91
75006;BME280;63553;51.814;4.600;2023-04-15T03:33:42;101025.75;;;14.26;56.72
75006;BME280;63553;51.814;4.600;2023-04-15T03:36:08;101022.47;;;14.24;56.46
75006;BME280;63553;51.814;4.600;2023-04-15T03:38:33;101027.72;;;14.25;56.87
75006;BME280;63553;51.814;4.600;2023-04-15T03:40:58;101032.97;;;14.27;56.73
75006;BME280;63553;51.814;4.600;2023-04-15T03:43:23;101035.78;;;14.27;57.09
75006;BME280;63553;51.814;4.600;2023-04-15T03:45:49;101031.34;;;14.26;57.85
75006;BME280;63553;51.814;4.600;2023-04-15T03:48:14;101040.03;;;14.33;57.00
75006;BME280;63553;51.814;4.600;2023-04-15T03:50:40;101046.22;;;14.38;57.34
75006;BME280;63553;51.814;4.600;2023-04-15T03:53:05;101052.97;;;14.37;57.14
75006;BME280;63553;51.814;4.600;2023-04-15T03:55:31;101050.06;;;14.34;56.98
75006;BME280;63553;51.814;4.600;2023-04-15T03:57:56;101060.56;;;14.37;57.15
75006;BME280;63553;51.814;4.600;2023-04-15T04:00:21;101048.88;;;14.35;57.05
75006;BME280;63553;51.814;4.600;2023-04-15T04:02:46;101049.25;;;14.33;56.85
75006;BME280;63553;51.814;4.600;2023-04-15T04:05:12;101057.28;;;14.35;57.31
75006;BME280;63553;51.814;4.600;2023-04-15T04:07:37;101060.72;;;14.32;56.75
75006;BME280;63553;51.814;4.600;2023-04-15T04:10:02;101066.03;;;14.33;57.13
75006;BME280;63553;51.814;4.600;2023-04-15T04:12:28;101066.03;;;14.33;57.62
75006;BME280;63553;51.814;4.600;2023-04-15T04:14:53;101068.00;;;14.33;57.42
75006;BME280;63553;51.814;4.600;2023-04-15T04:17:18;101067.94;;;14.41;59.20
75006;BME280;63553;51.814;4.600;2023-04-15T04:19:44;101072.38;;;14.42;59.19
75006;BME280;63553;51.814;4.600;2023-04-15T04:22:09;101074.50;;;14.45;58.75
75006;BME280;63553;51.814;4.600;2023-04-15T04:24:34;101083.69;;;14.46;58.54
75006;BME280;63553;51.814;4.600;2023-04-15T04:27:00;101092.09;;;14.46;58.19
75006;BME280;63553;51.814;4.600;2023-04-15T04:29:25;101090.44;;;14.45;58.17
75006;BME280;63553;51.814;4.600;2023-04-15T04:31:51;101090.44;;;14.45;58.19
75006;BME280;63553;51.814;4.600;2023-04-15T04:34:16;101090.31;;;14.41;57.97
75006;BME280;63553;51.814;4.600;2023-04-15T04:36:41;101092.63;;;14.39;58.29
75006;BME280;63553;51.814;4.600;2023-04-15T04:39:07;101101.34;;;14.38;57.66
75006;BME280;63553;51.814;4.600;2023-04-15T04:41:32;101102.88;;;14.35;57.74
75006;BME280;63553;51.814;4.600;2023-04-15T04:43:58;101113.22;;;14.35;57.87
75006;BME280;63553;51.814;4.600;2023-04-15T04:46:23;101123.28;;;14.36;58.21
75006;BME280;63553;51.814;4.600;2023-04-15T04:48:48;101122.13;;;14.37;57.31
75006;BME280;63553;51.814;4.600;2023-04-15T04:51:14;101124.91;;;14.37;58.22
75006;BME280;63553;51.814;4.600;2023-04-15T04:53:40;101130.50;;;14.37;58.39
75006;BME280;63553;51.814;4.600;2023-04-15T04:56:05;101140.19;;;14.39;57.97
75006;BME280;63553;51.814;4.600;2023-04-15T04:58:31;101132.97;;;14.38;58.52
75006;BME280;63553;51.814;4.600;2023-04-15T05:00:56;101130.97;;;14.39;58.14
75006;BME280;63553;51.814;4.600;2023-04-15T05:03:22;101136.91;;;14.37;58.54
75006;BME280;63553;51.814;4.600;2023-04-15T05:05:47;101153.34;;;14.39;58.54
75006;BME280;63553;51.814;4.600;2023-04-15T05:08:14;101148.91;;;14.38;58.33
75006;BME280;63553;51.814;4.600;2023-04-15T05:10:39;101158.97;;;14.39;57.91
75006;BME280;63553;51.814;4.600;2023-04-15T05:13:04;101171.78;;;14.40;57.95
75006;BME280;63553;51.814;4.600;2023-04-15T05:15:30;101164.56;;;14.39;57.94
75006;BME280;63553;51.814;4.600;2023-04-15T05:17:55;101166.53;;;14.38;58.26
75006;BME280;63553;51.814;4.600;2023-04-15T05:20:21;101171.44;;;14.41;58.24
75006;BME280;63553;51.814;4.600;2023-04-15T05:22:46;101179.16;;;14.44;57.96
75006;BME280;63553;51.814;4.600;2023-04-15T05:25:11;101187.22;;;14.46;57.89
75006;BME280;63553;51.814;4.600;2023-04-15T05:27:37;101188.38;;;14.45;57.74
75006;BME280;63553;51.814;4.600;2023-04-15T05:30:03;101192.81;;;14.46;57.50
75006;BME280;63553;51.814;4.600;2023-04-15T05:32:28;101187.22;;;14.46;57.51
75006;BME280;63553;51.814;4.600;2023-04-15T05:34:54;101198.06;;;14.48;57.40
75006;BME280;63553;51.814;4.600;2023-04-15T05:37:19;101196.91;;;14.49;57.21
75006;BME280;63553;51.814;4.600;2023-04-15T05:39:46;101202.84;;;14.47;57.26
75006;BME280;63553;51.814;4.600;2023-04-15T05:42:12;101198.13;;;14.39;57.40
75006;BME280;63553;51.814;4.600;2023-04-15T05:44:37;101213.69;;;14.49;57.00
75006;BME280;63553;51.814;4.600;2023-04-15T05:47:03;101216.97;;;14.51;56.92
75006;BME280;63553;51.814;4.600;2023-04-15T05:49:28;101223.38;;;14.51;56.95
75006;BME280;63553;51.814;4.600;2023-04-15T05:51:54;101226.66;;;14.53;57.10
75006;BME280;63553;51.814;4.600;2023-04-15T05:54:20;101232.41;;;14.57;56.72
75006;BME280;63553;51.814;4.600;2023-04-15T05:56:47;101244.00;;;14.67;56.65
75006;BME280;63553;51.814;4.600;2023-04-15T05:59:12;101240.06;;;14.89;56.68
75006;BME280;63553;51.814;4.600;2023-04-15T06:01:38;101248.78;;;15.29;55.29
75006;BME280;63553;51.814;4.600;2023-04-15T06:04:04;101258.06;;;15.74;54.67
75006;BME280;63553;51.814;4.600;2023-04-15T06:06:29;101253.59;;;16.18;52.99
75006;BME280;63553;51.814;4.600;2023-04-15T06:08:56;101264.94;;;16.58;52.89
75006;BME280;63553;51.814;4.600;2023-04-15T06:11:22;101264.88;;;16.94;52.08
75006;BME280;63553;51.814;4.600;2023-04-15T06:13:47;101265.94;;;17.30;51.40
75006;BME280;63553;51.814;4.600;2023-04-15T06:16:13;101266.88;;;17.61;49.92
75006;BME280;63553;51.814;4.600;2023-04-15T06:18:38;101275.47;;;17.96;48.76
75006;BME280;63553;51.814;4.600;2023-04-15T06:21:04;101285.66;;;18.32;47.41
75006;BME280;63553;51.814;4.600;2023-04-15T06:23:30;101289.63;;;18.62;46.64
75006;BME280;63553;51.814;4.600;2023-04-15T06:25:55;101291.94;;;18.92;45.08
75006;BME280;63553;51.814;4.600;2023-04-15T06:28:21;101293.00;;;19.22;44.70
75006;BME280;63553;51.814;4.600;2023-04-15T06:30:46;101305.31;;;19.49;44.24
75006;BME280;63553;51.814;4.600;2023-04-15T06:33:11;101306.63;;;19.74;43.04
75006;BME280;63553;51.814;4.600;2023-04-15T06:35:37;101309.47;;;19.96;41.87
75006;BME280;63553;51.814;4.600;2023-04-15T06:38:03;101322.44;;;20.20;41.25
75006;BME280;63553;51.814;4.600;2023-04-15T06:40:29;101320.03;;;20.41;41.90
75006;BME280;63553;51.814;4.600;2023-04-15T06:42:54;101332.75;;;14.96;46.15
75006;BME280;63553;51.814;4.600;2023-04-15T06:45:19;101337.53;;;14.66;54.44
75006;BME280;63553;51.814;4.600;2023-04-15T06:47:45;101353.47;;;13.39;51.19
75006;BME280;63553;51.814;4.600;2023-04-15T06:50:10;101353.56;;;12.34;55.28
75006;BME280;63553;51.814;4.600;2023-04-15T06:52:36;101357.75;;;13.45;61.75
75006;BME280;63553;51.814;4.600;2023-04-15T06:55:02;101361.63;;;11.83;59.38
75006;BME280;63553;51.814;4.600;2023-04-15T06:57:27;101353.47;;;13.56;52.66
75006;BME280;63553;51.814;4.600;2023-04-15T06:59:53;101361.31;;;13.88;60.26
75006;BME280;63553;51.814;4.600;2023-04-15T07:02:18;101354.94;;;13.27;51.44
75006;BME280;63553;51.814;4.600;2023-04-15T07:04:44;101360.19;;;15.02;51.15
75006;BME280;63553;51.814;4.600;2023-04-15T07:07:09;101363.66;;;13.34;50.47
75006;BME280;63553;51.814;4.600;2023-04-15T07:09:35;101364.63;;;13.73;51.96
75006;BME280;63553;51.814;4.600;2023-04-15T07:12:00;101373.81;;;13.13;52.43
75006;BME280;63553;51.814;4.600;2023-04-15T07:14:25;101372.13;;;15.41;48.77
75006;BME280;63553;51.814;4.600;2023-04-15T07:16:51;101365.00;;;15.02;47.70
75006;BME280;63553;51.814;4.600;2023-04-15T07:19:17;101380.59;;;13.21;52.85
75006;BME280;63553;51.814;4.600;2023-04-15T07:21:42;101372.25;;;16.31;51.72
75006;BME280;63553;51.814;4.600;2023-04-15T07:24:07;101380.41;;;15.37;49.78
75006;BME280;63553;51.814;4.600;2023-04-15T07:26:34;101378.09;;;16.26;49.10
75006;BME280;63553;51.814;4.600;2023-04-15T07:29:00;101377.22;;;15.80;47.37
75006;BME280;63553;51.814;4.600;2023-04-15T07:31:25;101400.44;;;13.97;50.87
75006;BME280;63553;51.814;4.600;2023-04-15T07:33:51;101404.97;;;14.27;50.17
75006;BME280;63553;51.814;4.600;2023-04-15T07:36:17;101400.97;;;13.64;52.16
75006;BME280;63553;51.814;4.600;2023-04-15T07:38:42;101394.56;;;15.12;49.17
75006;BME280;63553;51.814;4.600;2023-04-15T07:41:08;101407.56;;;15.16;48.48
75006;BME280;63553;51.814;4.600;2023-04-15T07:43:34;101398.00;;;16.00;46.94
75006;BME280;63553;51.814;4.600;2023-04-15T07:46:00;101407.59;;;17.93;43.46
75006;BME280;63553;51.814;4.600;2023-04-15T07:48:25;101401.53;;;19.12;41.21
75006;BME280;63553;51.814;4.600;2023-04-15T07:50:51;101418.19;;;17.84;42.68
75006;BME280;63553;51.814;4.600;2023-04-15T07:53:16;101418.41;;;19.44;41.93
75006;BME280;63553;51.814;4.600;2023-04-15T07:55:42;101434.53;;;17.94;44.21
75006;BME280;63553;51.814;4.600;2023-04-15T07:58:07;101434.31;;;18.70;42.16
75006;BME280;63553;51.814;4.600;2023-04-15T08:00:32;101435.94;;;17.72;45.06
75006;BME280;63553;51.814;4.600;2023-04-15T08:02:58;101443.22;;;18.28;42.44
75006;BME280;63553;51.814;4.600;2023-04-15T08:05:24;101447.25;;;19.21;40.59
75006;BME280;63553;51.814;4.600;2023-04-15T08:07:50;101440.13;;;20.16;40.46
75006;BME280;63553;51.814;4.600;2023-04-15T08:10:15;101454.13;;;20.09;40.29
75006;BME280;63553;51.814;4.600;2023-04-15T08:12:41;101461.50;;;17.43;42.86
75006;BME280;63553;51.814;4.600;2023-04-15T08:15:07;101465.09;;;18.63;41.09
75006;BME280;63553;51.814;4.600;2023-04-15T08:17:33;101470.38;;;17.81;42.50
75006;BME280;63553;51.814;4.600;2023-04-15T08:19:58;101476.78;;;18.21;42.58
75006;BME280;63553;51.814;4.600;2023-04-15T08:22:23;101472.88;;;17.98;43.52
75006;BME280;63553;51.814;4.600;2023-04-15T08:24:49;101483.44;;;18.57;42.35
75006;BME280;63553;51.814;4.600;2023-04-15T08:27:15;101481.44;;;18.02;42.05
75006;BME280;63553;51.814;4.600;2023-04-15T08:29:41;101487.25;;;17.69;42.56
75006;BME280;63553;51.814;4.600;2023-04-15T08:32:06;101497.09;;;18.70;41.09
75006;BME280;63553;51.814;4.600;2023-04-15T08:34:31;101495.56;;;19.04;39.52
75006;BME280;63553;51.814;4.600;2023-04-15T08:36:57;101497.50;;;20.01;40.15
75006;BME280;63553;51.814;4.600;2023-04-15T08:39:22;101507.06;;;18.52;41.10
75006;BME280;63553;51.814;4.600;2023-04-15T08:41:58;101512.72;;;19.30;41.49
75006;BME280;63553;51.814;4.600;2023-04-15T08:44:25;101518.66;;;19.25;40.75
75006;BME280;63553;51.814;4.600;2023-04-15T08:46:55;101516.25;;;20.47;38.77
75006;BME280;63553;51.814;4.600;2023-04-15T08:49:24;101523.50;;;19.09;40.63
75006;BME280;63553;51.814;4.600;2023-04-15T08:51:51;101526.78;;;18.12;41.11
75006;BME280;63553;51.814;4.600;2023-04-15T08:54:17;101514.13;;;17.54;42.55
75006;BME280;63553;51.814;4.600;2023-04-15T08:56:43;101528.84;;;19.61;39.99
75006;BME280;63553;51.814;4.600;2023-04-15T08:59:09;101528.47;;;19.98;38.89
75006;BME280;63553;51.814;4.600;2023-04-15T09:01:36;101528.06;;;20.72;38.26
75006;BME280;63553;51.814;4.600;2023-04-15T09:04:02;101541.78;;;19.62;38.70
75006;BME280;63553;51.814;4.600;2023-04-15T09:06:30;101548.03;;;19.24;40.98
75006;BME280;63553;51.814;4.600;2023-04-15T09:08:56;101540.50;;;16.93;44.64
75006;BME280;63553;51.814;4.600;2023-04-15T09:11:21;101547.97;;;16.23;45.89
75006;BME280;63553;51.814;4.600;2023-04-15T09:13:48;101542.34;;;17.46;43.98
75006;BME280;63553;51.814;4.600;2023-04-15T09:16:13;101547.31;;;19.27;41.74
75006;BME280;63553;51.814;4.600;2023-04-15T09:18:39;101553.97;;;15.92;45.27
75006;BME280;63553;51.814;4.600;2023-04-15T09:23:32;101563.59;;;19.34;38.44
75006;BME280;63553;51.814;4.600;2023-04-15T09:25:58;101568.81;;;19.48;39.19
75006;BME280;63553;51.814;4.600;2023-04-15T09:28:24;101570.88;;;19.19;39.05
75006;BME280;63553;51.814;4.600;2023-04-15T09:30:59;101579.06;;;19.09;38.78
75006;BME280;63553;51.814;4.600;2023-04-15T09:33:26;101593.34;;;19.78;38.35
75006;BME280;63553;51.814;4.600;2023-04-15T09:36:03;101587.19;;;18.43;41.67
75006;BME280;63553;51.814;4.600;2023-04-15T09:38:30;101599.41;;;17.58;39.69
75006;BME280;63553;51.814;4.600;2023-04-15T09:40:56;101594.88;;;16.76;41.93
75006;BME280;63553;51.814;4.600;2023-04-15T09:43:22;101598.25;;;19.34;37.12
75006;BME280;63553;51.814;4.600;2023-04-15T09:45:51;101590.25;;;20.72;36.68
75006;BME280;63553;51.814;4.600;2023-04-15T09:48:22;101591.84;;;19.50;35.25
75006;BME280;63553;51.814;4.600;2023-04-15T09:50:48;101597.38;;;20.47;33.34
75006;BME280;63553;51.814;4.600;2023-04-15T09:53:18;101606.91;;;20.23;32.66
75006;BME280;63553;51.814;4.600;2023-04-15T09:55:45;101606.28;;;20.68;33.58
75006;BME280;63553;51.814;4.600;2023-04-15T09:58:22;101615.50;;;20.27;35.21
75006;BME280;63553;51.814;4.600;2023-04-15T10:00:48;101607.63;;;17.06;39.32
75006;BME280;63553;51.814;4.600;2023-04-15T10:03:28;101618.25;;;17.70;39.22
75006;BME280;63553;51.814;4.600;2023-04-15T10:05:55;101621.38;;;20.37;37.92
75006;BME280;63553;51.814;4.600;2023-04-15T10:08:23;101616.00;;;19.82;37.60
75006;BME280;63553;51.814;4.600;2023-04-15T10:10:49;101619.66;;;18.64;40.44
75006;BME280;63553;51.814;4.600;2023-04-15T10:13:29;101622.75;;;21.24;36.28
75006;BME280;63553;51.814;4.600;2023-04-15T10:15:59;101616.03;;;22.00;35.69
75006;BME280;63553;51.814;4.600;2023-04-15T10:18:27;101617.59;;;22.24;35.20
75006;BME280;63553;51.814;4.600;2023-04-15T10:20:53;101624.88;;;22.25;35.11
75006;BME280;63553;51.814;4.600;2023-04-15T10:23:21;101609.53;;;22.26;36.78
75006;BME280;63553;51.814;4.600;2023-04-15T10:25:48;101619.97;;;22.22;38.07
75006;BME280;63553;51.814;4.600;2023-04-15T10:28:15;101626.63;;;22.06;37.60
75006;BME280;63553;51.814;4.600;2023-04-15T10:30:41;101630.91;;;21.93;37.71
75006;BME280;63553;51.814;4.600;2023-04-15T10:33:08;101630.63;;;21.79;37.97
75006;BME280;63553;51.814;4.600;2023-04-15T10:35:33;101630.78;;;21.64;38.83
75006;BME280;63553;51.814;4.600;2023-04-15T10:37:59;101632.91;;;21.47;38.70
75006;BME280;63553;51.814;4.600;2023-04-15T10:40:29;101638.69;;;21.32;39.12
75006;BME280;63553;51.814;4.600;2023-04-15T10:43:00;101639.16;;;21.15;39.32
75006;BME280;63553;51.814;4.600;2023-04-15T10:45:27;101647.34;;;21.00;39.41
75006;BME280;63553;51.814;4.600;2023-04-15T10:47:57;101650.72;;;20.87;39.56
75006;BME280;63553;51.814;4.600;2023-04-15T10:50:26;101657.34;;;20.75;39.30
75006;BME280;63553;51.814;4.600;2023-04-15T10:52:53;101648.31;;;20.70;40.60
75006;BME280;63553;51.814;4.600;2023-04-15T10:55:20;101656.66;;;20.63;40.61
75006;BME280;63553;51.814;4.600;2023-04-15T10:57:50;101662.88;;;20.52;40.52
75006;BME280;63553;51.814;4.600;2023-04-15T11:00:17;101677.06;;;20.37;40.73
75006;BME280;63553;51.814;4.600;2023-04-15T11:02:57;101673.63;;;20.28;40.87
75006;BME280;63553;51.814;4.600;2023-04-15T11:05:51;101671.69;;;20.16;40.88
75006;BME280;63553;51.814;4.600;2023-04-15T11:08:17;101677.91;;;20.06;41.22
75006;BME280;63553;51.814;4.600;2023-04-15T11:18:19;101684.56;;;19.82;41.89
75006;BME280;63553;51.814;4.600;2023-04-15T11:20:49;101690.84;;;19.76;41.85
75006;BME280;63553;51.814;4.600;2023-04-15T11:23:26;101693.56;;;19.72;41.95
75006;BME280;63553;51.814;4.600;2023-04-15T11:25:53;101707.56;;;19.69;42.09
75006;BME280;63553;51.814;4.600;2023-04-15T11:28:19;101705.47;;;19.66;41.81
75006;BME280;63553;51.814;4.600;2023-04-15T11:30:44;101712.31;;;19.65;42.06
75006;BME280;63553;51.814;4.600;2023-04-15T11:33:10;101712.66;;;19.63;42.13
75006;BME280;63553;51.814;4.600;2023-04-15T11:35:37;101720.69;;;19.61;41.94
75006;BME280;63553;51.814;4.600;2023-04-15T11:38:08;101718.69;;;19.62;42.11
75006;BME280;63553;51.814;4.600;2023-04-15T11:40:35;101711.31;;;19.57;41.97
75006;BME280;63553;51.814;4.600;2023-04-15T11:48:17;101721.59;;;19.50;42.50
75006;BME280;63553;51.814;4.600;2023-04-15T11:50:43;101715.50;;;19.48;42.17
75006;BME280;63553;51.814;4.600;2023-04-15T11:53:11;101711.75;;;19.44;42.06
75006;BME280;63553;51.814;4.600;2023-04-15T11:55:44;101715.16;;;19.37;42.59
75006;BME280;63553;51.814;4.600;2023-04-15T11:58:17;101716.25;;;19.32;42.98
75006;BME280;63553;51.814;4.600;2023-04-15T12:00:53;101726.16;;;19.26;43.49
75006;BME280;63553;51.814;4.600;2023-04-15T12:03:30;101728.75;;;19.19;43.17
75006;BME280;63553;51.814;4.600;2023-04-15T12:06:15;101730.03;;;19.22;44.24
75006;BME280;63553;51.814;4.600;2023-04-15T12:09:17;101735.31;;;19.23;45.66
75006;BME280;63553;51.814;4.600;2023-04-15T12:16:47;101743.88;;;19.27;46.51
75006;BME280;63553;51.814;4.600;2023-04-15T12:21:56;101742.50;;;19.21;46.55
75006;BME280;63553;51.814;4.600;2023-04-15T12:24:22;101746.50;;;19.20;47.02
75006;BME280;63553;51.814;4.600;2023-04-15T12:26:55;101749.22;;;19.16;46.81
75006;BME280;63553;51.814;4.600;2023-04-15T12:29:26;101752.47;;;19.18;47.00
75006;BME280;63553;51.814;4.600;2023-04-15T12:31:54;101762.97;;;19.18;46.68
75006;BME280;63553;51.814;4.600;2023-04-15T12:34:30;101761.75;;;19.19;47.10
75006;BME280;63553;51.814;4.600;2023-04-15T12:36:57;101769.75;;;19.17;46.51
75006;BME280;63553;51.814;4.600;2023-04-15T12:39:24;101767.28;;;19.15;46.36
75006;BME280;63553;51.814;4.600;2023-04-15T12:41:50;101776.84;;;19.11;46.21
75006;BME280;63553;51.814;4.600;2023-04-15T12:44:16;101786.47;;;19.10;45.92
75006;BME280;63553;51.814;4.600;2023-04-15T12:46:42;101781.19;;;19.08;45.99
75006;BME280;63553;51.814;4.600;2023-04-15T12:49:07;101782.72;;;19.06;46.08
75006;BME280;63553;51.814;4.600;2023-04-15T12:51:33;101779.81;;;19.02;46.10
75006;BME280;63553;51.814;4.600;2023-04-15T12:53:59;101775.31;;;19.01;46.11
75006;BME280;63553;51.814;4.600;2023-04-15T12:56:24;101795.44;;;19.00;45.90
75006;BME280;63553;51.814;4.600;2023-04-15T12:58:50;101795.53;;;19.03;45.76
75006;BME280;63553;51.814;4.600;2023-04-15T13:01:15;101800.34;;;19.03;46.10
75006;BME280;63553;51.814;4.600;2023-04-15T13:03:41;101801.91;;;19.00;45.54
75006;BME280;63553;51.814;4.600;2023-04-15T13:06:06;101804.22;;;18.98;45.77
75006;BME280;63553;51.814;4.600;2023-04-15T13:08:32;101805.75;;;18.96;46.10
75006;BME280;63553;51.814;4.600;2023-04-15T13:10:57;101808.47;;;18.92;45.51